sensor_id;sensor_type;location;lat;lon;timestamp;P1;durP1;ratioP1;P2;durP2;ratioP2
17151;SDS011;8691;50.828;4.700;2023-06-22T00:00:03;4.88;;;4.00;;
17151;SDS011;8691;50.828;4.700;2023-06-22T00:02:30;6.17;;;3.60;;
17151;SDS011;8691;50.828;4.700;2023-06-22T00:04:57;5.10;;;3.77;;
17151;SDS011;8691;50.828;4.700;2023-06-22T00:07:24;4.82;;;3.92;;
17151;SDS011;8691;50.828;4.700;2023-06-22T00:09:51;5.17;;;3.40;;
17151;SDS011;8691;50.828;4.700;2023-06-22T00:12:17;5.05;;;3.38;;
17151;SDS011;8691;50.828;4.700;2023-06-22T00:14:44;5.00;;;3.40;;
17151;SDS011;8691;50.828;4.700;2023-06-22T00:17:11;5.28;;;3.60;;
17151;SDS011;8691;50.828;4.700;2023-06-22T00:19:38;5.67;;;3.30;;
17151;SDS011;8691;50.828;4.700;2023-06-22T00:22:04;5.62;;;3.80;;
17151;SDS011;8691;50.828;4.700;2023-06-22T00:24:31;6.03;;;3.73;;
17151;SDS011;8691;50.828;4.700;2023-06-22T00:26:58;4.62;;;3.78;;
17151;SDS011;8691;50.828;4.700;2023-06-22T00:29:25;4.60;;;4.00;;
17151;SDS011;8691;50.828;4.700;2023-06-22T00:31:51;4.37;;;3.80;;
17151;SDS011;8691;50.828;4.700;2023-06-22T00:34:18;5.03;;;4.00;;
17151;SDS011;8691;50.828;4.700;2023-06-22T00:36:45;5.35;;;4.20;;
17151;SDS011;8691;50.828;4.700;2023-06-22T00:39:13;5.05;;;4.18;;
17151;SDS011;8691;50.828;4.700;2023-06-22T00:41:40;5.20;;;4.40;;
17151;SDS011;8691;50.828;4.700;2023-06-22T00:44:08;6.35;;;4.60;;
17151;SDS011;8691;50.828;4.700;2023-06-22T00:46:34;4.40;;;3.73;;
17151;SDS011;8691;50.828;4.700;2023-06-22T00:49:01;5.13;;;4.10;;
17151;SDS011;8691;50.828;4.700;2023-06-22T00:51:28;4.50;;;4.10;;
17151;SDS011;8691;50.828;4.700;2023-06-22T00:53:55;6.12;;;4.00;;
17151;SDS011;8691;50.828;4.700;2023-06-22T00:56:23;5.15;;;4.38;;
17151;SDS011;8691;50.828;4.700;2023-06-22T00:58:49;4.28;;;3.70;;
17151;SDS011;8691;50.828;4.700;2023-06-22T01:01:16;4.50;;;3.83;;
17151;SDS011;8691;50.828;4.700;2023-06-22T01:03:43;4.85;;;3.20;;
17151;SDS011;8691;50.828;4.700;2023-06-22T01:06:16;4.10;;;3.50;;
17151;SDS011;8691;50.828;4.700;2023-06-22T01:08:42;5.20;;;3.53;;
17151;SDS011;8691;50.828;4.700;2023-06-22T01:11:26;3.87;;;3.40;;
17151;SDS011;8691;50.828;4.700;2023-06-22T01:14:00;3.80;;;3.13;;
17151;SDS011;8691;50.828;4.700;2023-06-22T01:16:25;5.17;;;3.50;;
17151;SDS011;8691;50.828;4.700;2023-06-22T01:18:48;5.00;;;3.77;;
17151;SDS011;8691;50.828;4.700;2023-06-22T01:21:16;4.68;;;3.90;;
17151;SDS011;8691;50.828;4.700;2023-06-22T01:23:50;4.00;;;3.60;;
17151;SDS011;8691;50.828;4.700;2023-06-22T01:26:17;6.00;;;3.40;;
17151;SDS011;8691;50.828;4.700;2023-06-22T01:29:02;4.33;;;3.83;;
17151;SDS011;8691;50.828;4.700;2023-06-22T01:31:29;5.97;;;4.22;;
17151;SDS011;8691;50.828;4.700;2023-06-22T01:33:58;5.28;;;4.22;;
17151;SDS011;8691;50.828;4.700;2023-06-22T01:36:22;6.20;;;4.12;;
17151;SDS011;8691;50.828;4.700;2023-06-22T01:38:49;4.63;;;4.10;;
17151;SDS011;8691;50.828;4.700;2023-06-22T01:41:16;5.00;;;4.10;;
17151;SDS011;8691;50.828;4.700;2023-06-22T01:43:43;5.55;;;4.68;;
17151;SDS011;8691;50.828;4.700;2023-06-22T01:46:10;5.45;;;4.40;;
17151;SDS011;8691;50.828;4.700;2023-06-22T01:48:36;5.37;;;4.47;;
17151;SDS011;8691;50.828;4.700;2023-06-22T01:51:03;5.75;;;4.40;;
17151;SDS011;8691;50.828;4.700;2023-06-22T01:53:30;6.87;;;4.37;;
17151;SDS011;8691;50.828;4.700;2023-06-22T01:55:57;5.30;;;3.90;;
17151;SDS011;8691;50.828;4.700;2023-06-22T01:58:27;5.67;;;4.30;;
17151;SDS011;8691;50.828;4.700;2023-06-22T02:01:07;5.40;;;4.15;;
17151;SDS011;8691;50.828;4.700;2023-06-22T02:03:41;4.73;;;4.23;;
17151;SDS011;8691;50.828;4.700;2023-06-22T02:06:10;5.12;;;4.43;;
17151;SDS011;8691;50.828;4.700;2023-06-22T02:08:45;4.80;;;4.30;;
17151;SDS011;8691;50.828;4.700;2023-06-22T02:11:09;4.72;;;4.03;;
17151;SDS011;8691;50.828;4.700;2023-06-22T02:13:36;5.68;;;3.88;;
17151;SDS011;8691;50.828;4.700;2023-06-22T02:16:02;5.20;;;4.33;;
17151;SDS011;8691;50.828;4.700;2023-06-22T02:18:29;5.95;;;4.30;;
17151;SDS011;8691;50.828;4.700;2023-06-22T02:20:56;4.40;;;3.73;;
17151;SDS011;8691;50.828;4.700;2023-06-22T02:23:22;5.60;;;4.38;;
17151;SDS011;8691;50.828;4.700;2023-06-22T02:25:50;4.47;;;4.00;;
17151;SDS011;8691;50.828;4.700;2023-06-22T02:28:18;5.43;;;4.45;;
17151;SDS011;8691;50.828;4.700;2023-06-22T02:30:44;5.60;;;4.27;;
17151;SDS011;8691;50.828;4.700;2023-06-22T02:33:11;6.00;;;4.62;;
17151;SDS011;8691;50.828;4.700;2023-06-22T02:35:38;5.40;;;4.63;;
17151;SDS011;8691;50.828;4.700;2023-06-22T02:38:05;5.03;;;4.37;;
17151;SDS011;8691;50.828;4.700;2023-06-22T02:40:32;5.28;;;4.60;;
17151;SDS011;8691;50.828;4.700;2023-06-22T02:42:59;5.25;;;4.45;;
17151;SDS011;8691;50.828;4.700;2023-06-22T02:45:27;6.50;;;4.62;;
17151;SDS011;8691;50.828;4.700;2023-06-22T02:47:54;5.27;;;4.70;;
17151;SDS011;8691;50.828;4.700;2023-06-22T02:50:21;5.47;;;3.90;;
17151;SDS011;8691;50.828;4.700;2023-06-22T02:52:47;4.90;;;4.25;;
17151;SDS011;8691;50.828;4.700;2023-06-22T02:55:14;6.23;;;4.70;;
17151;SDS011;8691;50.828;4.700;2023-06-22T02:57:41;4.88;;;4.30;;
17151;SDS011;8691;50.828;4.700;2023-06-22T03:00:09;5.50;;;4.57;;
17151;SDS011;8691;50.828;4.700;2023-06-22T03:02:45;6.05;;;4.20;;
17151;SDS011;8691;50.828;4.700;2023-06-22T03:05:12;5.13;;;4.30;;
17151;SDS011;8691;50.828;4.700;2023-06-22T03:07:42;6.60;;;4.80;;
17151;SDS011;8691;50.828;4.700;2023-06-22T03:10:09;5.78;;;4.57;;
17151;SDS011;8691;50.828;4.700;2023-06-22T03:12:36;5.07;;;4.53;;
17151;SDS011;8691;50.828;4.700;2023-06-22T03:15:03;5.78;;;4.72;;
17151;SDS011;8691;50.828;4.700;2023-06-22T03:17:30;6.43;;;5.10;;
17151;SDS011;8691;50.828;4.700;2023-06-22T03:19:57;6.65;;;5.20;;
17151;SDS011;8691;50.828;4.700;2023-06-22T03:22:24;6.10;;;5.35;;
17151;SDS011;8691;50.828;4.700;2023-06-22T03:24:50;6.80;;;5.40;;
17151;SDS011;8691;50.828;4.700;2023-06-22T03:27:17;7.28;;;5.30;;
17151;SDS011;8691;50.828;4.700;2023-06-22T03:29:45;6.10;;;5.50;;
17151;SDS011;8691;50.828;4.700;2023-06-22T03:32:12;6.30;;;5.70;;
17151;SDS011;8691;50.828;4.700;2023-06-22T03:34:39;6.28;;;5.57;;
17151;SDS011;8691;50.828;4.700;2023-06-22T03:37:05;6.93;;;6.05;;
17151;SDS011;8691;50.828;4.700;2023-06-22T03:39:32;6.60;;;5.83;;
17151;SDS011;8691;50.828;4.700;2023-06-22T03:41:59;8.40;;;5.33;;
17151;SDS011;8691;50.828;4.700;2023-06-22T03:44:25;5.87;;;4.97;;
17151;SDS011;8691;50.828;4.700;2023-06-22T03:46:52;7.68;;;6.07;;
17151;SDS011;8691;50.828;4.700;2023-06-22T03:49:19;7.27;;;5.80;;
17151;SDS011;8691;50.828;4.700;2023-06-22T03:51:46;6.55;;;5.40;;
17151;SDS011;8691;50.828;4.700;2023-06-22T03:54:14;7.12;;;5.72;;
17151;SDS011;8691;50.828;4.700;2023-06-22T03:56:41;7.07;;;5.70;;
17151;SDS011;8691;50.828;4.700;2023-06-22T03:59:08;6.88;;;6.00;;
17151;SDS011;8691;50.828;4.700;2023-06-22T04:01:35;6.40;;;5.38;;
17151;SDS011;8691;50.828;4.700;2023-06-22T04:04:02;6.30;;;5.70;;
17151;SDS011;8691;50.828;4.700;2023-06-22T04:06:28;7.70;;;5.40;;
17151;SDS011;8691;50.828;4.700;2023-06-22T04:08:55;6.18;;;5.45;;
17151;SDS011;8691;50.828;4.700;2023-06-22T04:11:22;6.00;;;5.40;;
17151;SDS011;8691;50.828;4.700;2023-06-22T04:13:49;6.70;;;5.50;;
17151;SDS011;8691;50.828;4.700;2023-06-22T04:16:17;5.85;;;5.25;;
17151;SDS011;8691;50.828;4.700;2023-06-22T04:18:44;8.55;;;6.25;;
17151;SDS011;8691;50.828;4.700;2023-06-22T04:21:11;7.47;;;5.90;;
17151;SDS011;8691;50.828;4.700;2023-06-22T04:23:38;7.10;;;6.22;;
17151;SDS011;8691;50.828;4.700;2023-06-22T04:26:05;6.80;;;5.33;;
17151;SDS011;8691;50.828;4.700;2023-06-22T04:28:32;6.30;;;5.70;;
17151;SDS011;8691;50.828;4.700;2023-06-22T04:31:02;7.23;;;6.00;;
17151;SDS011;8691;50.828;4.700;2023-06-22T04:33:28;6.50;;;5.00;;
17151;SDS011;8691;50.828;4.700;2023-06-22T04:35:55;6.17;;;5.57;;
17151;SDS011;8691;50.828;4.700;2023-06-22T04:38:25;7.65;;;5.28;;
17151;SDS011;8691;50.828;4.700;2023-06-22T04:40:52;7.75;;;5.28;;
17151;SDS011;8691;50.828;4.700;2023-06-22T04:43:20;4.75;;;4.10;;
17151;SDS011;8691;50.828;4.700;2023-06-22T04:45:47;5.67;;;4.00;;
17151;SDS011;8691;50.828;4.700;2023-06-22T04:48:14;4.30;;;3.90;;
17151;SDS011;8691;50.828;4.700;2023-06-22T04:50:40;4.85;;;4.07;;
17151;SDS011;8691;50.828;4.700;2023-06-22T04:53:08;5.45;;;4.00;;
17151;SDS011;8691;50.828;4.700;2023-06-22T04:55:35;4.80;;;3.40;;
17151;SDS011;8691;50.828;4.700;2023-06-22T04:58:02;4.60;;;3.55;;
17151;SDS011;8691;50.828;4.700;2023-06-22T05:00:29;5.38;;;4.07;;
17151;SDS011;8691;50.828;4.700;2023-06-22T05:02:56;5.30;;;4.00;;
17151;SDS011;8691;50.828;4.700;2023-06-22T05:05:23;4.83;;;3.80;;
17151;SDS011;8691;50.828;4.700;2023-06-22T05:07:51;5.40;;;3.90;;
17151;SDS011;8691;50.828;4.700;2023-06-22T05:10:16;4.20;;;3.80;;
17151;SDS011;8691;50.828;4.700;2023-06-22T05:12:44;4.90;;;3.70;;
17151;SDS011;8691;50.828;4.700;2023-06-22T05:15:11;6.68;;;3.50;;
17151;SDS011;8691;50.828;4.700;2023-06-22T05:17:39;5.60;;;3.75;;
17151;SDS011;8691;50.828;4.700;2023-06-22T05:20:05;4.73;;;3.43;;
17151;SDS011;8691;50.828;4.700;2023-06-22T05:22:33;4.60;;;3.50;;
17151;SDS011;8691;50.828;4.700;2023-06-22T05:25:00;6.57;;;3.87;;
17151;SDS011;8691;50.828;4.700;2023-06-22T05:27:27;6.20;;;4.50;;
17151;SDS011;8691;50.828;4.700;2023-06-22T05:29:54;6.37;;;4.57;;
17151;SDS011;8691;50.828;4.700;2023-06-22T05:32:20;7.43;;;5.53;;
17151;SDS011;8691;50.828;4.700;2023-06-22T05:34:47;8.33;;;6.77;;
17151;SDS011;8691;50.828;4.700;2023-06-22T05:37:14;8.00;;;7.20;;
17151;SDS011;8691;50.828;4.700;2023-06-22T05:39:41;10.00;;;7.50;;
17151;SDS011;8691;50.828;4.700;2023-06-22T05:42:07;8.80;;;7.93;;
17151;SDS011;8691;50.828;4.700;2023-06-22T05:44:34;10.38;;;8.43;;
17151;SDS011;8691;50.828;4.700;2023-06-22T05:47:01;10.17;;;8.53;;
17151;SDS011;8691;50.828;4.700;2023-06-22T05:49:28;8.90;;;8.00;;
17151;SDS011;8691;50.828;4.700;2023-06-22T05:51:55;7.57;;;6.85;;
17151;SDS011;8691;50.828;4.700;2023-06-22T05:54:22;7.95;;;6.70;;
17151;SDS011;8691;50.828;4.700;2023-06-22T05:56:49;9.82;;;7.68;;
17151;SDS011;8691;50.828;4.700;2023-06-22T05:59:15;8.10;;;7.23;;
17151;SDS011;8691;50.828;4.700;2023-06-22T06:01:42;8.37;;;7.23;;
17151;SDS011;8691;50.828;4.700;2023-06-22T06:04:10;9.70;;;6.97;;
17151;SDS011;8691;50.828;4.700;2023-06-22T06:06:37;8.03;;;6.80;;
17151;SDS011;8691;50.828;4.700;2023-06-22T06:09:04;9.82;;;7.00;;
17151;SDS011;8691;50.828;4.700;2023-06-22T06:11:31;10.35;;;7.60;;
17151;SDS011;8691;50.828;4.700;2023-06-22T06:13:58;9.82;;;7.10;;
17151;SDS011;8691;50.828;4.700;2023-06-22T06:16:25;8.37;;;6.93;;
17151;SDS011;8691;50.828;4.700;2023-06-22T06:18:51;9.18;;;7.57;;
17151;SDS011;8691;50.828;4.700;2023-06-22T06:21:19;8.17;;;6.57;;
17151;SDS011;8691;50.828;4.700;2023-06-22T06:23:46;10.87;;;8.17;;
17151;SDS011;8691;50.828;4.700;2023-06-22T06:26:12;13.20;;;8.50;;
17151;SDS011;8691;50.828;4.700;2023-06-22T06:28:39;10.40;;;8.43;;
17151;SDS011;8691;50.828;4.700;2023-06-22T06:31:06;12.57;;;9.80;;
17151;SDS011;8691;50.828;4.700;2023-06-22T06:33:33;10.63;;;8.77;;
17151;SDS011;8691;50.828;4.700;2023-06-22T06:36:01;11.57;;;10.35;;
17151;SDS011;8691;50.828;4.700;2023-06-22T06:38:28;12.33;;;10.50;;
17151;SDS011;8691;50.828;4.700;2023-06-22T06:40:56;11.75;;;10.55;;
17151;SDS011;8691;50.828;4.700;2023-06-22T06:43:22;14.35;;;10.65;;
17151;SDS011;8691;50.828;4.700;2023-06-22T06:45:49;13.20;;;10.62;;
17151;SDS011;8691;50.828;4.700;2023-06-22T06:48:16;13.00;;;10.00;;
17151;SDS011;8691;50.828;4.700;2023-06-22T06:50:43;11.98;;;10.15;;
17151;SDS011;8691;50.828;4.700;2023-06-22T06:53:10;12.07;;;10.68;;
17151;SDS011;8691;50.828;4.700;2023-06-22T06:55:37;11.40;;;10.23;;
17151;SDS011;8691;50.828;4.700;2023-06-22T06:58:04;11.77;;;9.80;;
17151;SDS011;8691;50.828;4.700;2023-06-22T07:00:31;13.27;;;10.75;;
17151;SDS011;8691;50.828;4.700;2023-06-22T07:02:58;12.05;;;10.65;;
17151;SDS011;8691;50.828;4.700;2023-06-22T07:05:24;14.00;;;10.50;;
17151;SDS011;8691;50.828;4.700;2023-06-22T07:07:51;12.35;;;11.05;;
17151;SDS011;8691;50.828;4.700;2023-06-22T07:10:18;13.47;;;9.93;;
17151;SDS011;8691;50.828;4.700;2023-06-22T07:12:45;11.82;;;10.60;;
17151;SDS011;8691;50.828;4.700;2023-06-22T07:15:13;11.77;;;10.50;;
17151;SDS011;8691;50.828;4.700;2023-06-22T07:17:40;11.75;;;10.23;;
17151;SDS011;8691;50.828;4.700;2023-06-22T07:20:07;11.23;;;10.02;;
17151;SDS011;8691;50.828;4.700;2023-06-22T07:22:34;12.62;;;10.10;;
17151;SDS011;8691;50.828;4.700;2023-06-22T07:25:01;12.10;;;10.10;;
17151;SDS011;8691;50.828;4.700;2023-06-22T07:27:28;10.03;;;8.30;;
17151;SDS011;8691;50.828;4.700;2023-06-22T07:29:55;9.60;;;7.68;;
17151;SDS011;8691;50.828;4.700;2023-06-22T07:32:22;7.60;;;6.78;;
17151;SDS011;8691;50.828;4.700;2023-06-22T07:34:49;7.83;;;6.53;;
17151;SDS011;8691;50.828;4.700;2023-06-22T07:37:16;8.20;;;6.67;;
17151;SDS011;8691;50.828;4.700;2023-06-22T07:39:44;7.72;;;6.00;;
17151;SDS011;8691;50.828;4.700;2023-06-22T07:42:10;8.87;;;5.67;;
17151;SDS011;8691;50.828;4.700;2023-06-22T07:44:38;7.50;;;5.65;;
17151;SDS011;8691;50.828;4.700;2023-06-22T07:47:05;7.87;;;4.70;;
17151;SDS011;8691;50.828;4.700;2023-06-22T07:49:33;6.00;;;5.40;;
17151;SDS011;8691;50.828;4.700;2023-06-22T07:51:59;6.40;;;5.37;;
17151;SDS011;8691;50.828;4.700;2023-06-22T07:54:26;6.70;;;6.00;;
17151;SDS011;8691;50.828;4.700;2023-06-22T07:56:53;7.03;;;5.50;;
17151;SDS011;8691;50.828;4.700;2023-06-22T07:59:20;6.47;;;5.40;;
17151;SDS011;8691;50.828;4.700;2023-06-22T08:01:47;7.90;;;5.97;;
17151;SDS011;8691;50.828;4.700;2023-06-22T08:04:14;7.20;;;6.03;;
17151;SDS011;8691;50.828;4.700;2023-06-22T08:06:40;5.80;;;5.17;;
17151;SDS011;8691;50.828;4.700;2023-06-22T08:09:07;6.40;;;5.80;;
17151;SDS011;8691;50.828;4.700;2023-06-22T08:11:34;6.33;;;5.57;;
17151;SDS011;8691;50.828;4.700;2023-06-22T08:14:01;6.93;;;5.47;;
17151;SDS011;8691;50.828;4.700;2023-06-22T08:16:28;7.60;;;5.62;;
17151;SDS011;8691;50.828;4.700;2023-06-22T08:18:55;8.38;;;5.40;;
17151;SDS011;8691;50.828;4.700;2023-06-22T08:21:22;5.73;;;5.00;;
17151;SDS011;8691;50.828;4.700;2023-06-22T08:23:49;5.78;;;5.12;;
17151;SDS011;8691;50.828;4.700;2023-06-22T08:26:16;5.72;;;5.00;;
17151;SDS011;8691;50.828;4.700;2023-06-22T08:28:44;7.35;;;5.10;;
17151;SDS011;8691;50.828;4.700;2023-06-22T08:31:11;6.67;;;5.30;;
17151;SDS011;8691;50.828;4.700;2023-06-22T08:33:38;5.32;;;4.82;;
17151;SDS011;8691;50.828;4.700;2023-06-22T08:36:04;7.23;;;4.70;;
17151;SDS011;8691;50.828;4.700;2023-06-22T08:38:31;6.35;;;4.82;;
17151;SDS011;8691;50.828;4.700;2023-06-22T08:40:58;6.20;;;5.23;;
17151;SDS011;8691;50.828;4.700;2023-06-22T08:43:25;6.62;;;5.15;;
17151;SDS011;8691;50.828;4.700;2023-06-22T08:45:53;5.40;;;4.40;;
17151;SDS011;8691;50.828;4.700;2023-06-22T08:48:20;6.45;;;4.75;;
17151;SDS011;8691;50.828;4.700;2023-06-22T08:50:46;5.23;;;4.70;;
17151;SDS011;8691;50.828;4.700;2023-06-22T08:53:13;7.03;;;5.45;;
17151;SDS011;8691;50.828;4.700;2023-06-22T08:55:40;7.37;;;5.50;;
17151;SDS011;8691;50.828;4.700;2023-06-22T08:58:07;5.77;;;4.47;;
17151;SDS011;8691;50.828;4.700;2023-06-22T09:00:33;9.37;;;4.70;;
17151;SDS011;8691;50.828;4.700;2023-06-22T09:03:00;6.62;;;5.22;;
17151;SDS011;8691;50.828;4.700;2023-06-22T09:05:27;5.27;;;4.77;;
17151;SDS011;8691;50.828;4.700;2023-06-22T09:07:54;6.50;;;5.18;;
17151;SDS011;8691;50.828;4.700;2023-06-22T09:10:24;5.57;;;4.90;;
17151;SDS011;8691;50.828;4.700;2023-06-22T09:12:51;7.93;;;5.13;;
17151;SDS011;8691;50.828;4.700;2023-06-22T09:15:18;6.82;;;5.40;;
17151;SDS011;8691;50.828;4.700;2023-06-22T09:17:45;5.68;;;5.07;;
17151;SDS011;8691;50.828;4.700;2023-06-22T09:20:13;7.85;;;5.32;;
17151;SDS011;8691;50.828;4.700;2023-06-22T09:22:40;6.43;;;5.25;;
17151;SDS011;8691;50.828;4.700;2023-06-22T09:25:07;6.32;;;5.65;;
17151;SDS011;8691;50.828;4.700;2023-06-22T09:27:34;6.40;;;5.80;;
17151;SDS011;8691;50.828;4.700;2023-06-22T09:30:01;7.07;;;5.47;;
17151;SDS011;8691;50.828;4.700;2023-06-22T09:32:28;7.95;;;5.78;;
17151;SDS011;8691;50.828;4.700;2023-06-22T09:34:55;7.50;;;5.90;;
17151;SDS011;8691;50.828;4.700;2023-06-22T09:37:22;7.53;;;5.87;;
17151;SDS011;8691;50.828;4.700;2023-06-22T09:39:49;7.28;;;6.18;;
17151;SDS011;8691;50.828;4.700;2023-06-22T09:42:16;7.13;;;6.20;;
17151;SDS011;8691;50.828;4.700;2023-06-22T09:44:43;7.97;;;6.10;;
17151;SDS011;8691;50.828;4.700;2023-06-22T09:47:10;8.88;;;6.78;;
17151;SDS011;8691;50.828;4.700;2023-06-22T09:49:37;9.07;;;6.55;;
17151;SDS011;8691;50.828;4.700;2023-06-22T09:52:04;7.97;;;7.00;;
17151;SDS011;8691;50.828;4.700;2023-06-22T09:54:32;8.40;;;6.30;;
17151;SDS011;8691;50.828;4.700;2023-06-22T09:57:00;7.07;;;6.40;;
17151;SDS011;8691;50.828;4.700;2023-06-22T09:59:27;9.38;;;7.22;;
17151;SDS011;8691;50.828;4.700;2023-06-22T10:01:54;9.53;;;7.73;;
17151;SDS011;8691;50.828;4.700;2023-06-22T10:04:21;8.50;;;7.60;;
17151;SDS011;8691;50.828;4.700;2023-06-22T10:06:48;9.23;;;8.30;;
17151;SDS011;8691;50.828;4.700;2023-06-22T10:09:15;8.77;;;7.60;;
17151;SDS011;8691;50.828;4.700;2023-06-22T10:11:42;11.23;;;8.23;;
17151;SDS011;8691;50.828;4.700;2023-06-22T10:14:09;11.35;;;8.23;;
17151;SDS011;8691;50.828;4.700;2023-06-22T10:16:36;11.35;;;7.95;;
17151;SDS011;8691;50.828;4.700;2023-06-22T10:19:03;8.77;;;7.50;;
17151;SDS011;8691;50.828;4.700;2023-06-22T10:21:30;9.55;;;8.12;;
17151;SDS011;8691;50.828;4.700;2023-06-22T10:23:57;9.25;;;8.30;;
17151;SDS011;8691;50.828;4.700;2023-06-22T10:26:24;9.85;;;8.85;;
17151;SDS011;8691;50.828;4.700;2023-06-22T10:28:51;12.03;;;9.47;;
17151;SDS011;8691;50.828;4.700;2023-06-22T10:31:18;12.48;;;9.82;;
17151;SDS011;8691;50.828;4.700;2023-06-22T10:33:44;11.10;;;9.90;;
17151;SDS011;8691;50.828;4.700;2023-06-22T10:36:11;13.53;;;9.93;;
17151;SDS011;8691;50.828;4.700;2023-06-22T10:38:39;10.95;;;9.85;;
17151;SDS011;8691;50.828;4.700;2023-06-22T10:41:05;12.10;;;10.83;;
17151;SDS011;8691;50.828;4.700;2023-06-22T10:43:32;13.55;;;12.15;;
17151;SDS011;8691;50.828;4.700;2023-06-22T10:45:59;16.10;;;14.00;;
17151;SDS011;8691;50.828;4.700;2023-06-22T10:48:26;17.27;;;15.23;;
17151;SDS011;8691;50.828;4.700;2023-06-22T10:50:53;16.00;;;14.40;;
17151;SDS011;8691;50.828;4.700;2023-06-22T10:53:20;17.83;;;16.03;;
17151;SDS011;8691;50.828;4.700;2023-06-22T10:55:47;17.50;;;15.80;;
17151;SDS011;8691;50.828;4.700;2023-06-22T10:58:13;18.70;;;16.83;;
17151;SDS011;8691;50.828;4.700;2023-06-22T11:00:40;17.80;;;15.97;;
17151;SDS011;8691;50.828;4.700;2023-06-22T11:03:07;18.17;;;16.37;;
17151;SDS011;8691;50.828;4.700;2023-06-22T11:05:34;17.62;;;15.82;;
17151;SDS011;8691;50.828;4.700;2023-06-22T11:08:01;18.67;;;16.80;;
17151;SDS011;8691;50.828;4.700;2023-06-22T11:10:28;17.73;;;15.52;;
17151;SDS011;8691;50.828;4.700;2023-06-22T11:12:55;17.80;;;15.70;;
17151;SDS011;8691;50.828;4.700;2023-06-22T11:15:22;17.67;;;16.02;;
17151;SDS011;8691;50.828;4.700;2023-06-22T11:17:49;18.00;;;16.17;;
17151;SDS011;8691;50.828;4.700;2023-06-22T11:20:16;18.17;;;16.20;;
17151;SDS011;8691;50.828;4.700;2023-06-22T11:22:43;18.45;;;16.50;;
17151;SDS011;8691;50.828;4.700;2023-06-22T11:25:10;17.92;;;16.10;;
17151;SDS011;8691;50.828;4.700;2023-06-22T11:27:39;18.15;;;16.30;;
17151;SDS011;8691;50.828;4.700;2023-06-22T11:30:06;18.08;;;16.15;;
17151;SDS011;8691;50.828;4.700;2023-06-22T11:32:34;17.25;;;15.55;;
17151;SDS011;8691;50.828;4.700;2023-06-22T11:35:02;18.30;;;16.40;;
17151;SDS011;8691;50.828;4.700;2023-06-22T11:37:29;18.30;;;16.50;;
17151;SDS011;8691;50.828;4.700;2023-06-22T11:39:56;19.33;;;17.33;;
17151;SDS011;8691;50.828;4.700;2023-06-22T11:42:24;19.50;;;17.40;;
17151;SDS011;8691;50.828;4.700;2023-06-22T11:44:51;16.50;;;14.70;;
17151;SDS011;8691;50.828;4.700;2023-06-22T11:47:18;19.40;;;17.40;;
17151;SDS011;8691;50.828;4.700;2023-06-22T11:49:44;19.85;;;17.85;;
17151;SDS011;8691;50.828;4.700;2023-06-22T11:52:11;20.50;;;18.35;;
17151;SDS011;8691;50.828;4.700;2023-06-22T11:54:38;21.23;;;18.80;;
17151;SDS011;8691;50.828;4.700;2023-06-22T11:57:05;20.62;;;18.62;;
17151;SDS011;8691;50.828;4.700;2023-06-22T11:59:32;21.27;;;19.17;;
17151;SDS011;8691;50.828;4.700;2023-06-22T12:02:00;21.27;;;19.10;;
17151;SDS011;8691;50.828;4.700;2023-06-22T12:04:27;20.80;;;18.77;;
17151;SDS011;8691;50.828;4.700;2023-06-22T12:06:54;22.43;;;19.03;;
17151;SDS011;8691;50.828;4.700;2023-06-22T12:09:21;21.80;;;19.52;;
17151;SDS011;8691;50.828;4.700;2023-06-22T12:11:48;21.93;;;19.63;;
17151;SDS011;8691;50.828;4.700;2023-06-22T12:14:15;21.35;;;19.15;;
17151;SDS011;8691;50.828;4.700;2023-06-22T12:16:43;21.55;;;19.35;;
17151;SDS011;8691;50.828;4.700;2023-06-22T12:19:10;21.70;;;19.50;;
17151;SDS011;8691;50.828;4.700;2023-06-22T12:21:37;23.10;;;20.75;;
17151;SDS011;8691;50.828;4.700;2023-06-22T12:24:03;19.50;;;17.47;;
17151;SDS011;8691;50.828;4.700;2023-06-22T12:26:30;24.85;;;22.27;;
17151;SDS011;8691;50.828;4.700;2023-06-22T12:28:57;20.80;;;17.47;;
17151;SDS011;8691;50.828;4.700;2023-06-22T12:31:24;24.43;;;21.97;;
17151;SDS011;8691;50.828;4.700;2023-06-22T12:33:51;23.90;;;21.50;;
17151;SDS011;8691;50.828;4.700;2023-06-22T12:36:18;25.67;;;23.10;;
17151;SDS011;8691;50.828;4.700;2023-06-22T12:38:45;25.45;;;22.75;;
17151;SDS011;8691;50.828;4.700;2023-06-22T12:41:12;26.73;;;23.57;;
17151;SDS011;8691;50.828;4.700;2023-06-22T12:43:40;25.05;;;22.45;;
17151;SDS011;8691;50.828;4.700;2023-06-22T12:46:06;26.70;;;24.12;;
17151;SDS011;8691;50.828;4.700;2023-06-22T12:48:33;25.63;;;22.93;;
17151;SDS011;8691;50.828;4.700;2023-06-22T12:51:01;25.40;;;22.90;;
17151;SDS011;8691;50.828;4.700;2023-06-22T12:53:28;25.90;;;23.20;;
17151;SDS011;8691;50.828;4.700;2023-06-22T12:55:56;26.25;;;23.65;;
17151;SDS011;8691;50.828;4.700;2023-06-22T12:58:23;23.37;;;20.13;;
17151;SDS011;8691;50.828;4.700;2023-06-22T13:00:50;26.80;;;24.10;;
17151;SDS011;8691;50.828;4.700;2023-06-22T13:03:17;25.77;;;23.08;;
17151;SDS011;8691;50.828;4.700;2023-06-22T13:05:44;25.93;;;23.23;;
17151;SDS011;8691;50.828;4.700;2023-06-22T13:08:12;25.67;;;23.17;;
17151;SDS011;8691;50.828;4.700;2023-06-22T13:10:39;25.42;;;22.75;;
17151;SDS011;8691;50.828;4.700;2023-06-22T13:13:06;24.83;;;22.27;;
17151;SDS011;8691;50.828;4.700;2023-06-22T13:15:33;24.40;;;22.00;;
17151;SDS011;8691;50.828;4.700;2023-06-22T13:18:00;24.60;;;22.20;;
17151;SDS011;8691;50.828;4.700;2023-06-22T13:20:28;23.77;;;21.40;;
17151;SDS011;8691;50.828;4.700;2023-06-22T13:22:54;25.33;;;22.73;;
17151;SDS011;8691;50.828;4.700;2023-06-22T13:25:21;25.20;;;22.60;;
17151;SDS011;8691;50.828;4.700;2023-06-22T13:27:48;25.40;;;22.90;;
17151;SDS011;8691;50.828;4.700;2023-06-22T13:30:15;24.08;;;21.65;;
17151;SDS011;8691;50.828;4.700;2023-06-22T13:32:42;27.10;;;23.20;;
17151;SDS011;8691;50.828;4.700;2023-06-22T13:35:09;25.00;;;22.40;;
17151;SDS011;8691;50.828;4.700;2023-06-22T13:37:35;26.48;;;23.85;;
17151;SDS011;8691;50.828;4.700;2023-06-22T13:40:02;27.25;;;24.55;;
17151;SDS011;8691;50.828;4.700;2023-06-22T13:42:29;26.70;;;23.90;;
17151;SDS011;8691;50.828;4.700;2023-06-22T13:44:56;23.77;;;21.13;;
17151;SDS011;8691;50.828;4.700;2023-06-22T13:47:23;28.05;;;25.25;;
17151;SDS011;8691;50.828;4.700;2023-06-22T13:49:50;28.20;;;25.48;;
17151;SDS011;8691;50.828;4.700;2023-06-22T13:52:17;28.27;;;25.47;;
17151;SDS011;8691;50.828;4.700;2023-06-22T13:54:44;28.12;;;25.33;;
17151;SDS011;8691;50.828;4.700;2023-06-22T13:57:11;29.40;;;26.50;;
17151;SDS011;8691;50.828;4.700;2023-06-22T13:59:39;28.20;;;25.40;;
17151;SDS011;8691;50.828;4.700;2023-06-22T14:02:06;28.40;;;25.50;;
17151;SDS011;8691;50.828;4.700;2023-06-22T14:04:32;28.27;;;25.48;;
17151;SDS011;8691;50.828;4.700;2023-06-22T14:07:00;26.30;;;22.17;;
17151;SDS011;8691;50.828;4.700;2023-06-22T14:09:27;28.47;;;25.67;;
17151;SDS011;8691;50.828;4.700;2023-06-22T14:11:54;27.93;;;25.20;;
17151;SDS011;8691;50.828;4.700;2023-06-22T14:14:20;26.58;;;23.98;;
17151;SDS011;8691;50.828;4.700;2023-06-22T14:16:48;27.83;;;24.98;;
17151;SDS011;8691;50.828;4.700;2023-06-22T14:19:18;29.92;;;26.90;;
17151;SDS011;8691;50.828;4.700;2023-06-22T14:21:45;30.98;;;27.88;;
17151;SDS011;8691;50.828;4.700;2023-06-22T14:24:12;24.88;;;22.45;;
17151;SDS011;8691;50.828;4.700;2023-06-22T14:26:39;26.10;;;23.40;;
17151;SDS011;8691;50.828;4.700;2023-06-22T14:29:06;25.15;;;22.62;;
17151;SDS011;8691;50.828;4.700;2023-06-22T14:31:33;24.45;;;22.00;;
17151;SDS011;8691;50.828;4.700;2023-06-22T14:34:01;24.55;;;22.00;;
17151;SDS011;8691;50.828;4.700;2023-06-22T14:36:28;24.10;;;21.60;;
17151;SDS011;8691;50.828;4.700;2023-06-22T14:38:55;22.00;;;19.83;;
17151;SDS011;8691;50.828;4.700;2023-06-22T14:41:22;24.62;;;22.12;;
17151;SDS011;8691;50.828;4.700;2023-06-22T14:43:49;24.00;;;21.70;;
17151;SDS011;8691;50.828;4.700;2023-06-22T14:46:18;23.02;;;20.83;;
17151;SDS011;8691;50.828;4.700;2023-06-22T14:48:44;23.43;;;21.20;;